sensor_id;sensor_type;location;lat;lon;timestamp;temperature;humidity
51733;DHT22;39139;53.144;6.244;2024-01-30T00:01:13;6.10;99.90
51733;DHT22;39139;53.144;6.244;2024-01-30T00:03:38;6.30;99.90
51733;DHT22;39139;53.144;6.244;2024-01-30T00:06:04;6.30;99.90
51733;DHT22;39139;53.144;6.244;2024-01-30T00:08:30;6.30;99.90
51733;DHT22;39139;53.144;6.244;2024-01-30T00:10:56;6.30;99.90
51733;DHT22;39139;53.144;6.244;2024-01-30T00:13:21;6.30;99.90
51733;DHT22;39139;53.144;6.244;2024-01-30T00:15:48;6.40;99.90
51733;DHT22;39139;53.144;6.244;2024-01-30T00:18:14;6.30;99.90
51733;DHT22;39139;53.144;6.244;2024-01-30T00:20:40;6.40;99.90
51733;DHT22;39139;53.144;6.244;2024-01-30T00:23:05;6.30;99.90
51733;DHT22;39139;53.144;6.244;2024-01-30T00:25:31;6.30;99.90
51733;DHT22;39139;53.144;6.244;2024-01-30T00:27:58;6.30;99.90
51733;DHT22;39139;53.144;6.244;2024-01-30T00:30:24;6.20;99.90
51733;DHT22;39139;53.144;6.244;2024-01-30T00:32:49;6.20;99.90
51733;DHT22;39139;53.144;6.244;2024-01-30T00:35:15;6.20;99.90
51733;DHT22;39139;53.144;6.244;2024-01-30T00:37:41;6.20;99.90
51733;DHT22;39139;53.144;6.244;2024-01-30T00:40:07;6.20;99.90
51733;DHT22;39139;53.144;6.244;2024-01-30T00:42:33;6.20;99.90
51733;DHT22;39139;53.144;6.244;2024-01-30T00:44:59;6.20;99.90
51733;DHT22;39139;53.144;6.244;2024-01-30T00:47:24;6.10;99.90
51733;DHT22;39139;53.144;6.244;2024-01-30T00:49:50;6.10;99.90
51733;DHT22;39139;53.144;6.244;2024-01-30T00:52:15;6.20;99.90
51733;DHT22;39139;53.144;6.244;2024-01-30T00:54:41;6.10;99.90
51733;DHT22;39139;53.144;6.244;2024-01-30T00:57:07;6.40;99.90
51733;DHT22;39139;53.144;6.244;2024-01-30T00:59:33;6.00;99.90
51733;DHT22;39139;53.144;6.244;2024-01-30T01:01:58;6.00;99.90
51733;DHT22;39139;53.144;6.244;2024-01-30T01:04:24;5.90;99.90
51733;DHT22;39139;53.144;6.244;2024-01-30T01:06:52;6.00;99.90
51733;DHT22;39139;53.144;6.244;2024-01-30T01:09:18;6.00;99.90
51733;DHT22;39139;53.144;6.244;2024-01-30T01:11:43;6.00;99.90
51733;DHT22;39139;53.144;6.244;2024-01-30T01:14:09;5.90;99.90
51733;DHT22;39139;53.144;6.244;2024-01-30T01:16:34;5.90;99.90
51733;DHT22;39139;53.144;6.244;2024-01-30T01:19:00;5.90;99.90
51733;DHT22;39139;53.144;6.244;2024-01-30T01:21:26;5.80;99.90
51733;DHT22;39139;53.144;6.244;2024-01-30T01:23:51;5.80;99.90
51733;DHT22;39139;53.144;6.244;2024-01-30T01:26:17;5.80;99.90
51733;DHT22;39139;53.144;6.244;2024-01-30T01:28:43;5.80;99.90
51733;DHT22;39139;53.144;6.244;2024-01-30T01:31:09;5.80;99.90
51733;DHT22;39139;53.144;6.244;2024-01-30T01:33:34;5.80;99.90
51733;DHT22;39139;53.144;6.244;2024-01-30T01:36:02;5.80;99.90
51733;DHT22;39139;53.144;6.244;2024-01-30T01:38:28;5.80;99.90
51733;DHT22;39139;53.144;6.244;2024-01-30T01:40:54;5.80;99.90
51733;DHT22;39139;53.144;6.244;2024-01-30T01:43:19;5.80;99.90
51733;DHT22;39139;53.144;6.244;2024-01-30T01:45:45;5.80;99.90
51733;DHT22;39139;53.144;6.244;2024-01-30T01:48:11;5.80;99.90
51733;DHT22;39139;53.144;6.244;2024-01-30T01:50:38;5.80;99.90
51733;DHT22;39139;53.144;6.244;2024-01-30T01:53:05;5.80;99.90
51733;DHT22;39139;53.144;6.244;2024-01-30T01:55:31;5.90;99.90
51733;DHT22;39139;53.144;6.244;2024-01-30T01:57:57;5.90;99.90
51733;DHT22;39139;53.144;6.244;2024-01-30T02:00:23;5.90;99.90
51733;DHT22;39139;53.144;6.244;2024-01-30T02:02:50;6.20;99.90
51733;DHT22;39139;53.144;6.244;2024-01-30T02:05:17;6.00;99.90
51733;DHT22;39139;53.144;6.244;2024-01-30T02:07:43;6.00;99.90
51733;DHT22;39139;53.144;6.244;2024-01-30T02:10:09;6.00;99.90
51733;DHT22;39139;53.144;6.244;2024-01-30T02:12:35;6.10;99.90
51733;DHT22;39139;53.144;6.244;2024-01-30T02:15:01;6.00;99.90
51733;DHT22;39139;53.144;6.244;2024-01-30T02:17:26;6.00;99.90
51733;DHT22;39139;53.144;6.244;2024-01-30T02:19:52;6.20;99.90
51733;DHT22;39139;53.144;6.244;2024-01-30T02:22:19;5.90;99.90
51733;DHT22;39139;53.144;6.244;2024-01-30T02:24:45;5.90;99.90
51733;DHT22;39139;53.144;6.244;2024-01-30T02:27:11;5.90;99.90
51733;DHT22;39139;53.144;6.244;2024-01-30T02:29:36;5.80;99.90
51733;DHT22;39139;53.144;6.244;2024-01-30T02:32:03;5.80;99.90
51733;DHT22;39139;53.144;6.244;2024-01-30T02:34:28;5.80;99.90
51733;DHT22;39139;53.144;6.244;2024-01-30T02:36:54;5.80;99.90
51733;DHT22;39139;53.144;6.244;2024-01-30T02:39:19;5.80;99.90
51733;DHT22;39139;53.144;6.244;2024-01-30T02:41:45;5.80;99.90
51733;DHT22;39139;53.144;6.244;2024-01-30T02:44:12;5.80;99.90
51733;DHT22;39139;53.144;6.244;2024-01-30T02:46:37;5.80;99.90
51733;DHT22;39139;53.144;6.244;2024-01-30T02:49:03;5.80;99.90
51733;DHT22;39139;53.144;6.244;2024-01-30T02:51:28;5.80;99.90
51733;DHT22;39139;53.144;6.244;2024-01-30T02:53:54;5.80;99.90
51733;DHT22;39139;53.144;6.244;2024-01-30T02:56:19;6.00;99.90
51733;DHT22;39139;53.144;6.244;2024-01-30T02:58:45;5.80;99.90
51733;DHT22;39139;53.144;6.244;2024-01-30T03:01:11;5.80;99.90
51733;DHT22;39139;53.144;6.244;2024-01-30T03:03:36;5.80;99.90
51733;DHT22;39139;53.144;6.244;2024-01-30T03:06:02;5.80;99.90
51733;DHT22;39139;53.144;6.244;2024-01-30T03:08:28;5.80;99.90
51733;DHT22;39139;53.144;6.244;2024-01-30T03:10:54;6.00;99.90
51733;DHT22;39139;53.144;6.244;2024-01-30T03:13:19;5.80;99.90
51733;DHT22;39139;53.144;6.244;2024-01-30T03:15:45;5.80;99.90
51733;DHT22;39139;53.144;6.244;2024-01-30T03:18:11;5.80;99.90
51733;DHT22;39139;53.144;6.244;2024-01-30T03:20:36;5.80;99.90
51733;DHT22;39139;53.144;6.244;2024-01-30T03:23:02;5.80;99.90
51733;DHT22;39139;53.144;6.244;2024-01-30T03:25:28;5.80;99.90
51733;DHT22;39139;53.144;6.244;2024-01-30T03:27:53;5.80;99.90
51733;DHT22;39139;53.144;6.244;2024-01-30T03:30:19;5.00;99.90
51733;DHT22;39139;53.144;6.244;2024-01-30T03:32:44;6.00;99.90
51733;DHT22;39139;53.144;6.244;2024-01-30T03:35:10;6.10;99.90
51733;DHT22;39139;53.144;6.244;2024-01-30T03:37:36;6.20;99.90
51733;DHT22;39139;53.144;6.244;2024-01-30T03:40:02;6.30;99.90
51733;DHT22;39139;53.144;6.244;2024-01-30T03:42:28;6.40;99.90
51733;DHT22;39139;53.144;6.244;2024-01-30T03:44:54;6.40;99.90
51733;DHT22;39139;53.144;6.244;2024-01-30T03:47:21;6.30;99.90
51733;DHT22;39139;53.144;6.244;2024-01-30T03:49:46;6.30;99.90
51733;DHT22;39139;53.144;6.244;2024-01-30T03:52:12;6.30;99.90
51733;DHT22;39139;53.144;6.244;2024-01-30T03:54:38;6.30;99.90
51733;DHT22;39139;53.144;6.244;2024-01-30T03:57:04;6.30;99.90
51733;DHT22;39139;53.144;6.244;2024-01-30T03:59:30;6.30;99.90
51733;DHT22;39139;53.144;6.244;2024-01-30T04:01:55;6.30;99.90
51733;DHT22;39139;53.144;6.244;2024-01-30T04:04:21;6.40;99.90
51733;DHT22;39139;53.144;6.244;2024-01-30T04:06:47;6.40;99.90
51733;DHT22;39139;53.144;6.244;2024-01-30T04:09:13;6.40;99.90
51733;DHT22;39139;53.144;6.244;2024-01-30T04:11:42;6.40;99.90
51733;DHT22;39139;53.144;6.244;2024-01-30T04:14:08;6.40;99.90
51733;DHT22;39139;53.144;6.244;2024-01-30T04:16:34;6.50;99.90
51733;DHT22;39139;53.144;6.244;2024-01-30T04:19:00;6.50;99.90
51733;DHT22;39139;53.144;6.244;2024-01-30T04:21:25;6.40;99.90
51733;DHT22;39139;53.144;6.244;2024-01-30T04:23:51;6.40;99.90
51733;DHT22;39139;53.144;6.244;2024-01-30T04:26:17;6.40;99.90
51733;DHT22;39139;53.144;6.244;2024-01-30T04:28:46;6.50;99.90
51733;DHT22;39139;53.144;6.244;2024-01-30T04:31:12;6.50;99.90
51733;DHT22;39139;53.144;6.244;2024-01-30T04:33:37;6.50;99.90
51733;DHT22;39139;53.144;6.244;2024-01-30T04:36:03;6.60;99.90
51733;DHT22;39139;53.144;6.244;2024-01-30T04:38:30;6.60;99.90
51733;DHT22;39139;53.144;6.244;2024-01-30T04:40:56;6.60;99.90
51733;DHT22;39139;53.144;6.244;2024-01-30T04:43:22;6.60;99.90
51733;DHT22;39139;53.144;6.244;2024-01-30T04:45:49;6.70;99.90
51733;DHT22;39139;53.144;6.244;2024-01-30T04:48:14;6.70;99.90
51733;DHT22;39139;53.144;6.244;2024-01-30T04:50:40;6.70;99.90
51733;DHT22;39139;53.144;6.244;2024-01-30T04:53:05;7.00;99.90
51733;DHT22;39139;53.144;6.244;2024-01-30T04:55:31;6.80;99.90
51733;DHT22;39139;53.144;6.244;2024-01-30T04:57:57;6.90;99.90
51733;DHT22;39139;53.144;6.244;2024-01-30T05:00:22;6.80;99.90
51733;DHT22;39139;53.144;6.244;2024-01-30T05:02:48;6.80;99.90
51733;DHT22;39139;53.144;6.244;2024-01-30T05:05:13;6.80;99.90
51733;DHT22;39139;53.144;6.244;2024-01-30T05:07:41;6.80;99.90
51733;DHT22;39139;53.144;6.244;2024-01-30T05:10:07;6.80;99.90
51733;DHT22;39139;53.144;6.244;2024-01-30T05:12:33;6.80;99.90
51733;DHT22;39139;53.144;6.244;2024-01-30T05:14:59;6.90;99.90
51733;DHT22;39139;53.144;6.244;2024-01-30T05:17:25;6.80;99.90
51733;DHT22;39139;53.144;6.244;2024-01-30T05:19:50;6.80;99.90
51733;DHT22;39139;53.144;6.244;2024-01-30T05:22:16;6.80;99.90
51733;DHT22;39139;53.144;6.244;2024-01-30T05:24:44;6.80;99.90
51733;DHT22;39139;53.144;6.244;2024-01-30T05:27:09;6.90;99.90
51733;DHT22;39139;53.144;6.244;2024-01-30T05:29:35;6.90;99.90
51733;DHT22;39139;53.144;6.244;2024-01-30T05:32:01;6.80;99.90
51733;DHT22;39139;53.144;6.244;2024-01-30T05:34:27;6.80;99.90
51733;DHT22;39139;53.144;6.244;2024-01-30T05:36:53;6.80;99.90
51733;DHT22;39139;53.144;6.244;2024-01-30T05:39:18;6.80;99.90
51733;DHT22;39139;53.144;6.244;2024-01-30T05:41:44;6.70;99.90
51733;DHT22;39139;53.144;6.244;2024-01-30T05:44:10;6.70;99.90
51733;DHT22;39139;53.144;6.244;2024-01-30T05:46:35;6.70;99.90
51733;DHT22;39139;53.144;6.244;2024-01-30T05:49:01;6.70;99.90
51733;DHT22;39139;53.144;6.244;2024-01-30T05:51:26;6.70;99.90
51733;DHT22;39139;53.144;6.244;2024-01-30T05:53:53;6.70;99.90
51733;DHT22;39139;53.144;6.244;2024-01-30T05:56:19;6.70;99.90
51733;DHT22;39139;53.144;6.244;2024-01-30T05:58:45;6.80;99.90
51733;DHT22;39139;53.144;6.244;2024-01-30T06:01:10;6.80;99.90
51733;DHT22;39139;53.144;6.244;2024-01-30T06:03:36;6.80;99.90
51733;DHT22;39139;53.144;6.244;2024-01-30T06:06:02;6.90;99.90
51733;DHT22;39139;53.144;6.244;2024-01-30T06:08:28;6.90;99.90
51733;DHT22;39139;53.144;6.244;2024-01-30T06:10:53;6.90;99.90
51733;DHT22;39139;53.144;6.244;2024-01-30T06:13:19;6.90;99.90
51733;DHT22;39139;53.144;6.244;2024-01-30T06:15:45;6.90;99.90
51733;DHT22;39139;53.144;6.244;2024-01-30T06:18:11;6.90;99.90
51733;DHT22;39139;53.144;6.244;2024-01-30T06:20:36;7.00;99.90
51733;DHT22;39139;53.144;6.244;2024-01-30T06:23:02;7.00;99.90
51733;DHT22;39139;53.144;6.244;2024-01-30T06:25:27;7.00;99.90
51733;DHT22;39139;53.144;6.244;2024-01-30T06:27:53;7.30;99.90
51733;DHT22;39139;53.144;6.244;2024-01-30T06:30:19;7.10;99.90
51733;DHT22;39139;53.144;6.244;2024-01-30T06:32:45;7.00;99.90
51733;DHT22;39139;53.144;6.244;2024-01-30T06:35:10;7.00;99.90
51733;DHT22;39139;53.144;6.244;2024-01-30T06:37:36;7.00;99.90
51733;DHT22;39139;53.144;6.244;2024-01-30T06:40:02;7.00;99.90
51733;DHT22;39139;53.144;6.244;2024-01-30T06:42:30;7.10;99.90
51733;DHT22;39139;53.144;6.244;2024-01-30T06:44:55;7.10;99.90
51733;DHT22;39139;53.144;6.244;2024-01-30T06:47:21;7.00;99.90
51733;DHT22;39139;53.144;6.244;2024-01-30T06:49:47;7.00;99.90
51733;DHT22;39139;53.144;6.244;2024-01-30T06:52:12;7.10;99.90
51733;DHT22;39139;53.144;6.244;2024-01-30T06:54:38;7.10;99.90
51733;DHT22;39139;53.144;6.244;2024-01-30T06:57:05;7.10;99.90
51733;DHT22;39139;53.144;6.244;2024-01-30T06:59:34;7.10;99.90
51733;DHT22;39139;53.144;6.244;2024-01-30T07:02:00;7.10;99.90
51733;DHT22;39139;53.144;6.244;2024-01-30T07:04:26;7.10;99.90
51733;DHT22;39139;53.144;6.244;2024-01-30T07:06:51;7.10;99.90
51733;DHT22;39139;53.144;6.244;2024-01-30T07:09:18;7.10;99.90
51733;DHT22;39139;53.144;6.244;2024-01-30T07:11:44;7.20;99.90
51733;DHT22;39139;53.144;6.244;2024-01-30T07:14:10;7.20;99.90
51733;DHT22;39139;53.144;6.244;2024-01-30T07:16:36;7.20;99.90
51733;DHT22;39139;53.144;6.244;2024-01-30T07:19:01;7.20;99.90
51733;DHT22;39139;53.144;6.244;2024-01-30T07:21:27;7.30;99.90
51733;DHT22;39139;53.144;6.244;2024-01-30T07:23:57;7.20;99.90
51733;DHT22;39139;53.144;6.244;2024-01-30T07:26:23;7.70;99.90
51733;DHT22;39139;53.144;6.244;2024-01-30T07:28:48;7.40;99.90
51733;DHT22;39139;53.144;6.244;2024-01-30T07:31:15;7.30;99.90
51733;DHT22;39139;53.144;6.244;2024-01-30T07:33:41;7.30;99.90
51733;DHT22;39139;53.144;6.244;2024-01-30T07:36:06;7.30;99.90
51733;DHT22;39139;53.144;6.244;2024-01-30T07:38:32;7.40;99.90
51733;DHT22;39139;53.144;6.244;2024-01-30T07:40:58;7.40;99.90
51733;DHT22;39139;53.144;6.244;2024-01-30T07:43:23;7.40;99.90
51733;DHT22;39139;53.144;6.244;2024-01-30T07:45:49;7.40;99.90
51733;DHT22;39139;53.144;6.244;2024-01-30T07:48:15;7.40;99.90
51733;DHT22;39139;53.144;6.244;2024-01-30T07:50:40;7.40;99.90
51733;DHT22;39139;53.144;6.244;2024-01-30T07:53:06;8.00;99.90
51733;DHT22;39139;53.144;6.244;2024-01-30T07:55:32;7.40;99.90
51733;DHT22;39139;53.144;6.244;2024-01-30T07:57:58;7.40;99.90
51733;DHT22;39139;53.144;6.244;2024-01-30T08:00:27;7.40;99.90
51733;DHT22;39139;53.144;6.244;2024-01-30T08:02:54;7.40;99.90
51733;DHT22;39139;53.144;6.244;2024-01-30T08:05:21;7.40;99.90
51733;DHT22;39139;53.144;6.244;2024-01-30T08:07:48;7.40;99.90
51733;DHT22;39139;53.144;6.244;2024-01-30T08:10:14;7.70;99.90
51733;DHT22;39139;53.144;6.244;2024-01-30T08:12:40;7.50;99.90
51733;DHT22;39139;53.144;6.244;2024-01-30T08:15:06;7.50;99.90
51733;DHT22;39139;53.144;6.244;2024-01-30T08:17:32;7.50;99.90
51733;DHT22;39139;53.144;6.244;2024-01-30T08:19:58;7.50;99.90
51733;DHT22;39139;53.144;6.244;2024-01-30T08:22:24;7.50;99.90
51733;DHT22;39139;53.144;6.244;2024-01-30T08:24:49;7.50;99.90
51733;DHT22;39139;53.144;6.244;2024-01-30T08:27:15;7.50;99.90
51733;DHT22;39139;53.144;6.244;2024-01-30T08:29:41;7.60;99.90
51733;DHT22;39139;53.144;6.244;2024-01-30T08:32:07;7.60;99.90
51733;DHT22;39139;53.144;6.244;2024-01-30T08:34:32;7.60;99.90
51733;DHT22;39139;53.144;6.244;2024-01-30T08:36:58;7.60;99.90
51733;DHT22;39139;53.144;6.244;2024-01-30T08:39:24;7.70;99.90
51733;DHT22;39139;53.144;6.244;2024-01-30T08:41:50;7.70;99.90
51733;DHT22;39139;53.144;6.244;2024-01-30T08:44:16;7.80;99.90
51733;DHT22;39139;53.144;6.244;2024-01-30T08:46:43;7.80;99.90
51733;DHT22;39139;53.144;6.244;2024-01-30T08:49:10;7.80;99.90
51733;DHT22;39139;53.144;6.244;2024-01-30T08:51:35;7.90;99.90
51733;DHT22;39139;53.144;6.244;2024-01-30T08:54:01;7.90;99.90
51733;DHT22;39139;53.144;6.244;2024-01-30T08:56:27;7.90;99.90
51733;DHT22;39139;53.144;6.244;2024-01-30T08:58:53;8.00;99.90
51733;DHT22;39139;53.144;6.244;2024-01-30T09:01:18;8.00;99.90
51733;DHT22;39139;53.144;6.244;2024-01-30T09:03:44;8.10;99.90
51733;DHT22;39139;53.144;6.244;2024-01-30T09:06:12;8.20;99.90
51733;DHT22;39139;53.144;6.244;2024-01-30T09:08:38;8.20;99.90
51733;DHT22;39139;53.144;6.244;2024-01-30T09:11:12;8.30;99.90
51733;DHT22;39139;53.144;6.244;2024-01-30T09:13:39;8.30;99.90
51733;DHT22;39139;53.144;6.244;2024-01-30T09:16:05;8.40;99.90
51733;DHT22;39139;53.144;6.244;2024-01-30T09:18:31;8.50;99.90
51733;DHT22;39139;53.144;6.244;2024-01-30T09:20:56;8.60;99.90
51733;DHT22;39139;53.144;6.244;2024-01-30T09:23:22;8.70;99.90
51733;DHT22;39139;53.144;6.244;2024-01-30T09:25:48;8.80;99.90
51733;DHT22;39139;53.144;6.244;2024-01-30T09:28:13;8.80;99.90
51733;DHT22;39139;53.144;6.244;2024-01-30T09:30:39;8.90;99.90
51733;DHT22;39139;53.144;6.244;2024-01-30T09:33:06;8.90;99.90
51733;DHT22;39139;53.144;6.244;2024-01-30T09:35:32;8.90;99.90
51733;DHT22;39139;53.144;6.244;2024-01-30T09:37:57;9.00;99.90
51733;DHT22;39139;53.144;6.244;2024-01-30T09:40:24;8.90;99.90
51733;DHT22;39139;53.144;6.244;2024-01-30T09:42:54;8.90;99.90
51733;DHT22;39139;53.144;6.244;2024-01-30T09:45:23;9.00;99.90
51733;DHT22;39139;53.144;6.244;2024-01-30T09:47:49;9.00;99.90
51733;DHT22;39139;53.144;6.244;2024-01-30T09:50:16;9.10;99.90
51733;DHT22;39139;53.144;6.244;2024-01-30T09:52:44;9.10;99.90
51733;DHT22;39139;53.144;6.244;2024-01-30T09:55:10;9.10;99.90
51733;DHT22;39139;53.144;6.244;2024-01-30T09:57:35;9.20;99.90
51733;DHT22;39139;53.144;6.244;2024-01-30T10:00:02;9.20;99.90
51733;DHT22;39139;53.144;6.244;2024-01-30T10:02:31;9.20;99.90
51733;DHT22;39139;53.144;6.244;2024-01-30T10:04:56;9.20;99.90
51733;DHT22;39139;53.144;6.244;2024-01-30T10:07:22;9.30;99.90
51733;DHT22;39139;53.144;6.244;2024-01-30T10:09:48;9.30;99.90
51733;DHT22;39139;53.144;6.244;2024-01-30T10:12:15;9.30;99.90
51733;DHT22;39139;53.144;6.244;2024-01-30T10:14:42;9.20;99.90
51733;DHT22;39139;53.144;6.244;2024-01-30T10:17:09;9.30;99.90
51733;DHT22;39139;53.144;6.244;2024-01-30T10:19:36;9.30;99.90
51733;DHT22;39139;53.144;6.244;2024-01-30T10:22:02;9.30;99.90
51733;DHT22;39139;53.144;6.244;2024-01-30T10:24:28;9.30;99.90
51733;DHT22;39139;53.144;6.244;2024-01-30T10:26:55;9.30;99.90
51733;DHT22;39139;53.144;6.244;2024-01-30T10:29:21;9.30;99.90
51733;DHT22;39139;53.144;6.244;2024-01-30T10:31:57;9.30;99.90
51733;DHT22;39139;53.144;6.244;2024-01-30T10:34:23;9.40;99.90
51733;DHT22;39139;53.144;6.244;2024-01-30T10:36:50;9.40;99.90
51733;DHT22;39139;53.144;6.244;2024-01-30T10:39:17;9.50;99.90
51733;DHT22;39139;53.144;6.244;2024-01-30T10:41:47;9.50;99.90
51733;DHT22;39139;53.144;6.244;2024-01-30T10:44:19;9.60;99.90
51733;DHT22;39139;53.144;6.244;2024-01-30T10:46:53;9.60;99.90
51733;DHT22;39139;53.144;6.244;2024-01-30T10:49:22;9.70;99.90
51733;DHT22;39139;53.144;6.244;2024-01-30T10:51:49;9.80;99.90
51733;DHT22;39139;53.144;6.244;2024-01-30T10:54:15;9.90;99.90
51733;DHT22;39139;53.144;6.244;2024-01-30T10:56:43;9.90;99.90
51733;DHT22;39139;53.144;6.244;2024-01-30T10:59:09;10.10;99.90
51733;DHT22;39139;53.144;6.244;2024-01-30T11:01:35;10.00;99.90
51733;DHT22;39139;53.144;6.244;2024-01-30T11:04:01;10.00;99.90
51733;DHT22;39139;53.144;6.244;2024-01-30T11:06:27;10.00;99.90
51733;DHT22;39139;53.144;6.244;2024-01-30T11:09:03;10.00;99.90
51733;DHT22;39139;53.144;6.244;2024-01-30T11:11:52;10.10;99.90
51733;DHT22;39139;53.144;6.244;2024-01-30T11:14:23;10.10;99.90
51733;DHT22;39139;53.144;6.244;2024-01-30T11:16:50;10.00;99.90
51733;DHT22;39139;53.144;6.244;2024-01-30T11:19:22;10.00;99.90
51733;DHT22;39139;53.144;6.244;2024-01-30T11:21:50;9.90;99.90
51733;DHT22;39139;53.144;6.244;2024-01-30T11:24:25;9.90;99.90
51733;DHT22;39139;53.144;6.244;2024-01-30T11:26:58;9.90;99.90
51733;DHT22;39139;53.144;6.244;2024-01-30T11:29:25;10.00;99.90
51733;DHT22;39139;53.144;6.244;2024-01-30T11:31:58;10.10;99.90
51733;DHT22;39139;53.144;6.244;2024-01-30T11:34:24;10.10;99.90
51733;DHT22;39139;53.144;6.244;2024-01-30T11:36:59;10.10;99.90
51733;DHT22;39139;53.144;6.244;2024-01-30T11:39:27;10.10;99.90
51733;DHT22;39139;53.144;6.244;2024-01-30T11:41:55;10.00;99.90
51733;DHT22;39139;53.144;6.244;2024-01-30T11:44:21;10.00;99.90
51733;DHT22;39139;53.144;6.244;2024-01-30T11:46:51;9.80;99.90
51733;DHT22;39139;53.144;6.244;2024-01-30T11:49:17;9.80;99.90
51733;DHT22;39139;53.144;6.244;2024-01-30T11:51:45;9.80;99.90
51733;DHT22;39139;53.144;6.244;2024-01-30T11:54:11;9.70;99.90
51733;DHT22;39139;53.144;6.244;2024-01-30T11:56:37;9.70;99.90
51733;DHT22;39139;53.144;6.244;2024-01-30T11:59:04;9.70;99.90
51733;DHT22;39139;53.144;6.244;2024-01-30T12:01:31;9.80;99.90
51733;DHT22;39139;53.144;6.244;2024-01-30T12:03:58;9.60;99.90
51733;DHT22;39139;53.144;6.244;2024-01-30T12:06:23;9.70;99.90
51733;DHT22;39139;53.144;6.244;2024-01-30T12:09:03;9.70;99.90
51733;DHT22;39139;53.144;6.244;2024-01-30T12:11:43;10.60;99.90
51733;DHT22;39139;53.144;6.244;2024-01-30T12:14:09;9.70;99.90
51733;DHT22;39139;53.144;6.244;2024-01-30T12:16:35;9.70;99.90
51733;DHT22;39139;53.144;6.244;2024-01-30T12:19:01;9.70;99.90
51733;DHT22;39139;53.144;6.244;2024-01-30T12:21:28;9.50;99.90
51733;DHT22;39139;53.144;6.244;2024-01-30T12:23:54;9.50;99.90
51733;DHT22;39139;53.144;6.244;2024-01-30T12:26:19;9.40;99.90
51733;DHT22;39139;53.144;6.244;2024-01-30T12:28:49;9.40;99.90
51733;DHT22;39139;53.144;6.244;2024-01-30T12:31:17;9.40;99.90
51733;DHT22;39139;53.144;6.244;2024-01-30T12:33:43;9.40;99.90
51733;DHT22;39139;53.144;6.244;2024-01-30T12:36:09;9.50;99.90
51733;DHT22;39139;53.144;6.244;2024-01-30T12:38:34;9.60;99.90
51733;DHT22;39139;53.144;6.244;2024-01-30T12:41:00;9.90;99.90
51733;DHT22;39139;53.144;6.244;2024-01-30T12:43:26;9.90;99.90
51733;DHT22;39139;53.144;6.244;2024-01-30T12:45:55;10.00;99.90
51733;DHT22;39139;53.144;6.244;2024-01-30T12:48:20;10.40;99.90
51733;DHT22;39139;53.144;6.244;2024-01-30T12:50:46;10.30;99.90
51733;DHT22;39139;53.144;6.244;2024-01-30T12:53:11;10.30;99.90
51733;DHT22;39139;53.144;6.244;2024-01-30T12:55:38;10.20;99.90
51733;DHT22;39139;53.144;6.244;2024-01-30T12:58:04;10.20;99.90
51733;DHT22;39139;53.144;6.244;2024-01-30T13:00:29;10.10;99.90
51733;DHT22;39139;53.144;6.244;2024-01-30T13:02:55;10.10;99.90
51733;DHT22;39139;53.144;6.244;2024-01-30T13:05:21;10.00;99.90
51733;DHT22;39139;53.144;6.244;2024-01-30T13:07:46;9.90;99.90
51733;DHT22;39139;53.144;6.244;2024-01-30T13:10:12;9.80;99.90
51733;DHT22;39139;53.144;6.244;2024-01-30T13:12:38;9.70;99.90
51733;DHT22;39139;53.144;6.244;2024-01-30T13:15:04;9.70;99.90
51733;DHT22;39139;53.144;6.244;2024-01-30T13:17:31;9.60;99.90
51733;DHT22;39139;53.144;6.244;2024-01-30T13:19:57;9.60;99.90
51733;DHT22;39139;53.144;6.244;2024-01-30T13:22:24;9.50;99.90
51733;DHT22;39139;53.144;6.244;2024-01-30T13:24:50;9.50;99.90
51733;DHT22;39139;53.144;6.244;2024-01-30T13:27:16;9.50;99.90
51733;DHT22;39139;53.144;6.244;2024-01-30T13:29:41;9.50;99.90
51733;DHT22;39139;53.144;6.244;2024-01-30T13:32:07;9.50;99.90
51733;DHT22;39139;53.144;6.244;2024-01-30T13:34:33;9.50;99.90
51733;DHT22;39139;53.144;6.244;2024-01-30T13:36:58;9.30;99.90
51733;DHT22;39139;53.144;6.244;2024-01-30T13:39:24;9.50;99.90
51733;DHT22;39139;53.144;6.244;2024-01-30T13:41:50;9.30;99.90
51733;DHT22;39139;53.144;6.244;2024-01-30T13:44:16;9.50;99.90
51733;DHT22;39139;53.144;6.244;2024-01-30T13:46:45;9.20;99.90
51733;DHT22;39139;53.144;6.244;2024-01-30T13:49:11;9.20;99.90
51733;DHT22;39139;53.144;6.244;2024-01-30T13:51:37;9.20;99.90
51733;DHT22;39139;53.144;6.244;2024-01-30T13:54:02;9.30;99.90
51733;DHT22;39139;53.144;6.244;2024-01-30T13:56:29;9.00;99.90
51733;DHT22;39139;53.144;6.244;2024-01-30T13:58:55;9.00;99.90
51733;DHT22;39139;53.144;6.244;2024-01-30T14:01:22;8.80;99.90
51733;DHT22;39139;53.144;6.244;2024-01-30T14:03:48;8.90;99.90
51733;DHT22;39139;53.144;6.244;2024-01-30T14:06:13;8.90;99.90
51733;DHT22;39139;53.144;6.244;2024-01-30T14:08:39;8.90;99.90
51733;DHT22;39139;53.144;6.244;2024-01-30T14:11:05;9.00;99.90
51733;DHT22;39139;53.144;6.244;2024-01-30T14:13:31;8.80;99.90
51733;DHT22;39139;53.144;6.244;2024-01-30T14:15:58;8.80;99.90
51733;DHT22;39139;53.144;6.244;2024-01-30T14:18:24;8.80;99.90
51733;DHT22;39139;53.144;6.244;2024-01-30T14:20:51;9.50;99.90
51733;DHT22;39139;53.144;6.244;2024-01-30T14:23:17;8.60;99.90
51733;DHT22;39139;53.144;6.244;2024-01-30T14:25:43;8.50;99.90
51733;DHT22;39139;53.144;6.244;2024-01-30T14:28:09;8.50;99.90
51733;DHT22;39139;53.144;6.244;2024-01-30T14:30:34;8.50;99.90
51733;DHT22;39139;53.144;6.244;2024-01-30T14:33:01;8.50;99.90
51733;DHT22;39139;53.144;6.244;2024-01-30T14:35:27;8.40;99.90
51733;DHT22;39139;53.144;6.244;2024-01-30T14:37:53;8.80;99.90
51733;DHT22;39139;53.144;6.244;2024-01-30T14:40:19;8.40;99.90
51733;DHT22;39139;53.144;6.244;2024-01-30T14:42:45;8.30;99.90
51733;DHT22;39139;53.144;6.244;2024-01-30T14:45:11;8.30;99.90
51733;DHT22;39139;53.144;6.244;2024-01-30T14:47:37;8.30;99.90
51733;DHT22;39139;53.144;6.244;2024-01-30T14:50:03;8.30;99.90
51733;DHT22;39139;53.144;6.244;2024-01-30T14:52:30;8.30;99.90
51733;DHT22;39139;53.144;6.244;2024-01-30T14:54:57;8.30;99.90
51733;DHT22;39139;53.144;6.244;2024-01-30T14:57:24;8.20;99.90
51733;DHT22;39139;53.144;6.244;2024-01-30T14:59:49;8.20;99.90
51733;DHT22;39139;53.144;6.244;2024-01-30T15:02:15;8.50;99.90
51733;DHT22;39139;53.144;6.244;2024-01-30T15:04:40;8.20;99.90
51733;DHT22;39139;53.144;6.244;2024-01-30T15:07:06;8.20;99.90
51733;DHT22;39139;53.144;6.244;2024-01-30T15:09:32;8.20;99.90
51733;DHT22;39139;53.144;6.244;2024-01-30T15:11:58;8.20;99.90
51733;DHT22;39139;53.144;6.244;2024-01-30T15:14:23;8.20;99.90
51733;DHT22;39139;53.144;6.244;2024-01-30T15:16:50;8.20;99.90
51733;DHT22;39139;53.144;6.244;2024-01-30T15:19:15;8.30;99.90
51733;DHT22;39139;53.144;6.244;2024-01-30T15:21:41;8.20;99.90
51733;DHT22;39139;53.144;6.244;2024-01-30T15:24:07;8.20;99.90
51733;DHT22;39139;53.144;6.244;2024-01-30T15:26:32;8.10;99.90
51733;DHT22;39139;53.144;6.244;2024-01-30T15:28:58;8.10;99.90
51733;DHT22;39139;53.144;6.244;2024-01-30T15:31:24;8.10;99.90
51733;DHT22;39139;53.144;6.244;2024-01-30T15:33:49;8.10;99.90
51733;DHT22;39139;53.144;6.244;2024-01-30T15:36:15;8.10;99.90
51733;DHT22;39139;53.144;6.244;2024-01-30T15:38:41;8.10;99.90